Terminal Aerodrome Forecast
Issued by NWS

Home | Current Version | Previous Version | Text Only | Print | Product List | Glossary On
Versions: 1 2 3 4 5 6 7 8 9 10 11 12 13 14 15 16 17 18 19
922
FTUS43 KLSX 221120
TAFUIN
TAF
KUIN 221120Z 2212/2312 20009KT P6SM SCT250
     FM221900 22012KT P6SM VCTS BKN080CB
     FM230300 21004KT P6SM VCTS BKN045CB
     FM230600 18004KT P6SM VCSH BKN040
     FM231000 19004KT P6SM VCSH OVC025=

USA.gov is the U.S. government's official web portal to all federal, state and local government web resources and services.